Nuku'alofa, Tonga
Current Conditions -  °F | °C
As of 4:00 AM on Saturday 20 Dec 2014 (Local Time) from NFTF Reporting Station
Scattered Clouds Scattered Clouds  
Wind Chill: 75°   Ceiling: Unl
Heat Index: 75°   Visibility: 6mi
Dew Point: 64°   Wind: 13mph
Humidity: 69%   Direction: 110°ESE
Pressure: 29.88"   Gusts: NA
Location:  21.14°S, 175.22°W
Report Text: NFTF 191500Z 11011KT 9999 FEW017TCU SCT280 24/18 Q1012
Loading
Personal Weather Stations






























Interactive Weather Map New forecast layout! Learn more

10-Day Weather Forecast

Advertisements
Track Severe Weather on mobile